Florina, Greece

4:49 PM EET on January 25, 2015 (GMT +0200)
Odysseas Elytis | Change Station
CLOSE
Current Station
Airport
Location: Mytilini,
Elevation: 16 ft
Nearby Weather Stations

Elev 16 ft 39.05 °N, 26.60 °E | Updated 29 minutes ago

Rain
Rain
55 °F
Feels Like 55 °F
N
9
Wind Variable Wind from SW
Gusts 23 mph

Today
High -- | Low -- °F
--% Chance of Precip.
Yesterday
High -- | Low -- °F
Precip. -- in
7:26 AM 5:25 PM
Waxing Crescent, 33% visible
Pressure 29.86 in
Visibility 3.7 miles
Clouds Few 1600 ft
Mostly Cloudy 1800 ft
Overcast 7000 ft
Dew Point 50 °F
Humidity 82%
Rainfall 0.00 in
Snow Depth Not available.
UV 0 out of 12
Pollen Not available.
Air Quality Not available.
Flu Activity Not available.
METAR LGMT 251420Z 22008G20KT 6000 RA FEW016CB BKN018 OVC070 13/10 Q1011 RETS

More Conditions Fewer Conditions

Pressure 29.86 in
Visibility 3.7 miles
Clouds Few 1600 ft
Mostly Cloudy 1800 ft
Overcast 7000 ft
Dew Point 50 °F
Humidity 82%
Rainfall 0.00 in
Snow Depth Not available.
UV 0 out of 12
Pollen Not available.
Air Quality Not available.
Flu Activity Not available.
METAR LGMT 251420Z 22008G20KT 6000 RA FEW016CB BKN018 OVC070 13/10 Q1011 RETS

More Conditions Fewer Conditions

10-Day Weather Forecast

Almanac

Astronomy

Jan. 25, 2015 Rise Set
Actual Time
Civil Twilight
Nautical Twilight
Astronomical Twilight
Moon
Length of Visible Light
Length of Day
Tomorrow will be .
, % of the Moon is Illuminated

Today's Extremes

Country Highs Country Lows

Community

WunderPhotos

Upload Photos

1,789,899 photos uploaded!

WunderBlogs® & News

Nearby

Air Quality

  Air Quality AQ Index Pollutant
Not available.

Snow Depth

Station Depth Elevation

Earthquake Activity

City Distance Mag. Time & Date
Minimum magnitude displayed is 2.5.

Coastal Water Temperatures

Place Temperature

Nearby Weather Stations